JKL weather

Kalymnos Airport
Kalymnos Island, Dodecanese, Greece

Public forecast

Using degrees Celsius for public forecast. Weather courtesy of forecast.io.

Closest aviation weather report (METAR) to Kalymnos Airport

Closest report is Kos Airport, 12.5 nm (23.2 km) SE. Retrieved 2020/02/17 15:20 UTC (0 seconds ago):

LGKO 171520Z 36004KT CAVOK 15/07 Q1019

Closest aviation forecast (TAF) to Kalymnos Airport

Closest forecast is Kos Airport, 12.5 nm (23.2 km) SE. Retrieved 2020/02/17 12:14 UTC (3 hours ago):

TAF LGKO 171100Z 1712/1812 33010KT 9999 FEW025 BECMG 1720/1722 VRB05KT